Orlandia, Brazil
Current Conditions -  °F | °C
As of 12:00 PM on Monday 26 Jan 2015 (Local Time) from SBRP Reporting Station
Broken Clouds Broken Clouds  
Wind Chill: 82°   Ceiling: 2500
Heat Index: 85°   Visibility: 6mi
Dew Point: 66°   Wind: 8mph
Humidity: 58%   Direction: 300°WNW
Pressure: 30.03"   Gusts: NA
Location:  20.71°S, 47.89°W
Report Text: SBRP 261400Z 30007KT 9999 BKN025 28/19 Q1017
Loading
Personal Weather Stations






























Interactive Weather Map New forecast layout! Learn more

10-Day Weather Forecast

Advertisements
Track Severe Weather on mobile